Hachinohe, Japan
Current Conditions -  °F | °C
As of 4:00 PM on Friday 24 Oct 2014 (Local Time) from RJSA Reporting Station
Scattered Clouds Scattered Clouds  
Wind Chill: 55°   Ceiling: Unl
Heat Index: 55°   Visibility: 6mi
Dew Point: 46°   Wind: 6mph
Humidity: 72%   Direction: 280°W
Pressure: 30.12"   Gusts: NA
Location:  40.52°N, 141.52°E
Report Text: RJSA 240700Z 28005KT 9999 FEW035 SCT045 13/08 Q1020
Loading
Personal Weather Stations






























Interactive Weather Map
Tropical Storm Tracking
New forecast layout! Learn more

10-Day Weather Forecast

Advertisements
Track Severe Weather on mobile